sensor_id;sensor_type;location;lat;lon;timestamp;pressure;altitude;pressure_sealevel;temperature;humidity
58223;BME280;44020;50.890;15.796;2023-01-29T00:00:43;98681.53;;;-2.80;83.66
58223;BME280;44020;50.890;15.796;2023-01-29T00:03:31;98682.24;;;-2.82;84.01
58223;BME280;44020;50.890;15.796;2023-01-29T00:05:59;98679.27;;;-2.84;84.17
58223;BME280;44020;50.890;15.796;2023-01-29T00:08:26;98685.02;;;-2.83;84.21
58223;BME280;44020;50.890;15.796;2023-01-29T00:11:00;98680.49;;;-2.80;84.36
58223;BME280;44020;50.890;15.796;2023-01-29T00:13:28;98674.74;;;-2.77;84.34
58223;BME280;44020;50.890;15.796;2023-01-29T00:15:56;98676.30;;;-2.75;84.26
58223;BME280;44020;50.890;15.796;2023-01-29T00:18:24;98673.70;;;-2.77;84.13
58223;BME280;44020;50.890;15.796;2023-01-29T00:20:53;98672.84;;;-2.75;84.49
58223;BME280;44020;50.890;15.796;2023-01-29T00:23:21;98670.05;;;-2.72;84.40
58223;BME280;44020;50.890;15.796;2023-01-29T00:25:49;98669.86;;;-2.68;84.34
58223;BME280;44020;50.890;15.796;2023-01-29T00:28:18;98671.95;;;-2.65;84.36
58223;BME280;44020;50.890;15.796;2023-01-29T00:30:45;98672.65;;;-2.65;84.02
58223;BME280;44020;50.890;15.796;2023-01-29T00:33:12;98665.51;;;-2.64;84.08
58223;BME280;44020;50.890;15.796;2023-01-29T00:35:40;98657.34;;;-2.64;83.66
58223;BME280;44020;50.890;15.796;2023-01-29T00:38:08;98643.59;;;-2.64;83.71
58223;BME280;44020;50.890;15.796;2023-01-29T00:40:39;98634.73;;;-2.65;83.94
58223;BME280;44020;50.890;15.796;2023-01-29T00:43:25;98635.94;;;-2.62;83.91
58223;BME280;44020;50.890;15.796;2023-01-29T00:46:11;98631.23;;;-2.61;83.78
58223;BME280;44020;50.890;15.796;2023-01-29T00:48:38;98624.62;;;-2.62;83.74
58223;BME280;44020;50.890;15.796;2023-01-29T00:51:05;98617.32;;;-2.61;83.66
58223;BME280;44020;50.890;15.796;2023-01-29T00:53:32;98611.75;;;-2.62;83.49
58223;BME280;44020;50.890;15.796;2023-01-29T00:56:00;98612.46;;;-2.64;83.51
58223;BME280;44020;50.890;15.796;2023-01-29T00:58:27;98607.77;;;-2.65;83.39
58223;BME280;44020;50.890;15.796;2023-01-29T01:01:01;98606.89;;;-2.65;83.30
58223;BME280;44020;50.890;15.796;2023-01-29T01:03:28;98605.68;;;-2.67;83.16
58223;BME280;44020;50.890;15.796;2023-01-29T01:06:08;98604.30;;;-2.68;83.14
58223;BME280;44020;50.890;15.796;2023-01-29T01:08:35;98597.52;;;-2.69;83.03
58223;BME280;44020;50.890;15.796;2023-01-29T01:11:22;98590.91;;;-2.68;83.05
58223;BME280;44020;50.890;15.796;2023-01-29T01:13:49;98587.60;;;-2.69;83.15
58223;BME280;44020;50.890;15.796;2023-01-29T01:16:17;98585.34;;;-2.67;83.33
58223;BME280;44020;50.890;15.796;2023-01-29T01:18:46;98589.16;;;-2.67;83.19
58223;BME280;44020;50.890;15.796;2023-01-29T01:21:13;98590.89;;;-2.66;83.16
58223;BME280;44020;50.890;15.796;2023-01-29T01:23:40;98595.41;;;-2.67;83.09
58223;BME280;44020;50.890;15.796;2023-01-29T01:26:08;98588.64;;;-2.70;82.79
58223;BME280;44020;50.890;15.796;2023-01-29T01:28:36;98580.66;;;-2.73;82.96
58223;BME280;44020;50.890;15.796;2023-01-29T01:31:11;98579.09;;;-2.73;82.83
58223;BME280;44020;50.890;15.796;2023-01-29T01:33:39;98581.86;;;-2.73;82.76
58223;BME280;44020;50.890;15.796;2023-01-29T01:36:07;98590.74;;;-2.74;82.79
58223;BME280;44020;50.890;15.796;2023-01-29T01:38:39;98589.89;;;-2.75;82.77
58223;BME280;44020;50.890;15.796;2023-01-29T01:41:12;98587.27;;;-2.76;82.74
58223;BME280;44020;50.890;15.796;2023-01-29T01:43:55;98587.28;;;-2.77;82.72
58223;BME280;44020;50.890;15.796;2023-01-29T01:46:31;98588.67;;;-2.75;82.83
58223;BME280;44020;50.890;15.796;2023-01-29T01:49:09;98585.36;;;-2.74;82.63
58223;BME280;44020;50.890;15.796;2023-01-29T01:51:41;98587.62;;;-2.76;82.51
58223;BME280;44020;50.890;15.796;2023-01-29T01:54:12;98586.58;;;-2.79;82.34
58223;BME280;44020;50.890;15.796;2023-01-29T01:56:45;98581.73;;;-2.81;82.40
58223;BME280;44020;50.890;15.796;2023-01-29T01:59:17;98580.86;;;-2.80;82.37
58223;BME280;44020;50.890;15.796;2023-01-29T02:01:49;98578.59;;;-2.82;82.44
58223;BME280;44020;50.890;15.796;2023-01-29T02:04:20;98575.64;;;-2.81;82.38
58223;BME280;44020;50.890;15.796;2023-01-29T02:07:11;98573.73;;;-2.82;82.42
58223;BME280;44020;50.890;15.796;2023-01-29T02:10:08;98567.48;;;-2.85;82.42
58223;BME280;44020;50.890;15.796;2023-01-29T02:12:36;98568.52;;;-2.85;82.26
58223;BME280;44020;50.890;15.796;2023-01-29T02:15:05;98570.61;;;-2.86;82.35
58223;BME280;44020;50.890;15.796;2023-01-29T02:17:32;98571.48;;;-2.86;82.29
58223;BME280;44020;50.890;15.796;2023-01-29T02:28:57;98594.09;;;-2.87;82.21
58223;BME280;44020;50.890;15.796;2023-01-29T02:40:51;98591.66;;;-2.93;82.40
58223;BME280;44020;50.890;15.796;2023-01-29T02:51:58;98594.98;;;-2.92;82.28
58223;BME280;44020;50.890;15.796;2023-01-29T02:54:49;98584.70;;;-2.92;82.41
58223;BME280;44020;50.890;15.796;2023-01-29T02:57:24;98579.85;;;-2.92;82.31
58223;BME280;44020;50.890;15.796;2023-01-29T03:00:06;98577.92;;;-2.93;82.31
58223;BME280;44020;50.890;15.796;2023-01-29T03:03:50;98569.41;;;-2.93;82.24
58223;BME280;44020;50.890;15.796;2023-01-29T03:06:50;98569.39;;;-2.90;82.27
58223;BME280;44020;50.890;15.796;2023-01-29T03:09:51;98574.78;;;-2.90;82.24
58223;BME280;44020;50.890;15.796;2023-01-29T03:12:40;98562.96;;;-2.87;82.46
58223;BME280;44020;50.890;15.796;2023-01-29T03:15:15;98549.56;;;-2.84;82.28
58223;BME280;44020;50.890;15.796;2023-01-29T03:18:10;98548.34;;;-2.84;82.36
58223;BME280;44020;50.890;15.796;2023-01-29T03:20:57;98558.95;;;-2.81;82.26
58223;BME280;44020;50.890;15.796;2023-01-29T03:23:52;98566.59;;;-2.80;82.23
58223;BME280;44020;50.890;15.796;2023-01-29T03:26:56;98560.67;;;-2.80;82.09
58223;BME280;44020;50.890;15.796;2023-01-29T03:29:53;98555.29;;;-2.82;81.88
58223;BME280;44020;50.890;15.796;2023-01-29T03:32:49;98556.15;;;-2.84;81.83
58223;BME280;44020;50.890;15.796;2023-01-29T03:35:29;98563.48;;;-2.85;81.89
58223;BME280;44020;50.890;15.796;2023-01-29T03:38:13;98563.81;;;-2.84;81.89
58223;BME280;44020;50.890;15.796;2023-01-29T03:41:06;98574.79;;;-2.84;81.90
58223;BME280;44020;50.890;15.796;2023-01-29T03:47:21;98550.45;;;-2.86;81.74
58223;BME280;44020;50.890;15.796;2023-01-29T03:50:06;98550.09;;;-2.87;81.64
58223;BME280;44020;50.890;15.796;2023-01-29T03:56:58;98555.31;;;-2.87;81.84
58223;BME280;44020;50.890;15.796;2023-01-29T04:06:35;98555.66;;;-2.88;81.75
58223;BME280;44020;50.890;15.796;2023-01-29T04:13:03;98551.15;;;-2.91;81.63
58223;BME280;44020;50.890;15.796;2023-01-29T04:15:59;98556.56;;;-2.97;81.54
58223;BME280;44020;50.890;15.796;2023-01-29T04:18:51;98554.46;;;-2.98;81.70
58223;BME280;44020;50.890;15.796;2023-01-29T04:28:20;98549.61;;;-3.00;81.74
58223;BME280;44020;50.890;15.796;2023-01-29T04:34:07;98551.00;;;-3.00;81.73
58223;BME280;44020;50.890;15.796;2023-01-29T04:40:38;98538.83;;;-3.02;81.64
58223;BME280;44020;50.890;15.796;2023-01-29T04:50:04;98523.38;;;-3.06;81.55
58223;BME280;44020;50.890;15.796;2023-01-29T04:52:48;98512.95;;;-3.07;81.39
58223;BME280;44020;50.890;15.796;2023-01-29T05:02:11;98498.89;;;-3.12;81.56
58223;BME280;44020;50.890;15.796;2023-01-29T05:04:58;98496.45;;;-3.11;81.40
58223;BME280;44020;50.890;15.796;2023-01-29T05:07:38;98497.33;;;-3.12;81.25
58223;BME280;44020;50.890;15.796;2023-01-29T05:10:40;98496.64;;;-3.17;81.25
58223;BME280;44020;50.890;15.796;2023-01-29T05:13:21;98494.40;;;-3.22;81.26
58223;BME280;44020;50.890;15.796;2023-01-29T05:16:46;98502.91;;;-3.25;81.23
58223;BME280;44020;50.890;15.796;2023-01-29T05:29:19;98473.06;;;-3.42;81.40
58223;BME280;44020;50.890;15.796;2023-01-29T05:41:56;98464.41;;;-3.59;80.88
58223;BME280;44020;50.890;15.796;2023-01-29T05:51:25;98470.52;;;-3.78;80.87
58223;BME280;44020;50.890;15.796;2023-01-29T06:00:55;98465.49;;;-3.99;80.75
58223;BME280;44020;50.890;15.796;2023-01-29T06:07:05;98459.25;;;-4.06;81.06
58223;BME280;44020;50.890;15.796;2023-01-29T06:13:06;98449.35;;;-4.09;80.93
58223;BME280;44020;50.890;15.796;2023-01-29T06:19:04;98462.55;;;-4.15;80.62
58223;BME280;44020;50.890;15.796;2023-01-29T06:21:36;98466.18;;;-4.19;80.42
58223;BME280;44020;50.890;15.796;2023-01-29T06:24:14;98473.81;;;-4.22;80.47
58223;BME280;44020;50.890;15.796;2023-01-29T06:29:57;98492.86;;;-4.40;80.05
58223;BME280;44020;50.890;15.796;2023-01-29T06:32:33;98499.78;;;-4.52;80.06
58223;BME280;44020;50.890;15.796;2023-01-29T06:35:02;98506.16;;;-4.66;79.90
58223;BME280;44020;50.890;15.796;2023-01-29T06:37:28;98518.29;;;-4.70;80.36
58223;BME280;44020;50.890;15.796;2023-01-29T06:40:09;98527.63;;;-4.71;80.54
58223;BME280;44020;50.890;15.796;2023-01-29T06:46:08;98539.59;;;-4.72;80.51
58223;BME280;44020;50.890;15.796;2023-01-29T06:49:02;98540.61;;;-4.77;80.45
58223;BME280;44020;50.890;15.796;2023-01-29T06:51:48;98551.86;;;-4.81;80.38
58223;BME280;44020;50.890;15.796;2023-01-29T06:54:18;98559.81;;;-4.84;80.39
58223;BME280;44020;50.890;15.796;2023-01-29T07:05:40;98579.66;;;-5.02;80.35
58223;BME280;44020;50.890;15.796;2023-01-29T07:08:23;98583.48;;;-5.02;80.36
58223;BME280;44020;50.890;15.796;2023-01-29T07:11:11;98595.09;;;-5.00;80.51
58223;BME280;44020;50.890;15.796;2023-01-29T07:16:48;98618.98;;;-5.01;80.21
58223;BME280;44020;50.890;15.796;2023-01-29T07:19:16;98624.90;;;-4.98;80.33
58223;BME280;44020;50.890;15.796;2023-01-29T07:21:52;98623.37;;;-4.93;80.41
58223;BME280;44020;50.890;15.796;2023-01-29T07:24:42;98614.73;;;-4.90;80.27
58223;BME280;44020;50.890;15.796;2023-01-29T07:27:26;98600.55;;;-4.84;80.45
58223;BME280;44020;50.890;15.796;2023-01-29T07:30:03;98598.84;;;-4.79;80.30
58223;BME280;44020;50.890;15.796;2023-01-29T07:32:40;98606.84;;;-4.74;80.35
58223;BME280;44020;50.890;15.796;2023-01-29T07:35:19;98607.90;;;-4.69;80.36
58223;BME280;44020;50.890;15.796;2023-01-29T07:38:09;98619.20;;;-4.65;80.29
58223;BME280;44020;50.890;15.796;2023-01-29T07:40:37;98631.35;;;-4.60;80.30
58223;BME280;44020;50.890;15.796;2023-01-29T07:43:06;98631.37;;;-4.58;80.15
58223;BME280;44020;50.890;15.796;2023-01-29T07:45:43;98623.23;;;-4.56;80.10
58223;BME280;44020;50.890;15.796;2023-01-29T07:48:39;98621.16;;;-4.53;80.13
58223;BME280;44020;50.890;15.796;2023-01-29T07:51:47;98626.22;;;-4.48;80.15
58223;BME280;44020;50.890;15.796;2023-01-29T07:54:35;98631.60;;;-4.46;80.13
58223;BME280;44020;50.890;15.796;2023-01-29T07:57:03;98631.08;;;-4.44;80.01
58223;BME280;44020;50.890;15.796;2023-01-29T08:00:00;98623.81;;;-4.41;80.18
58223;BME280;44020;50.890;15.796;2023-01-29T08:02:50;98608.23;;;-4.37;80.03
58223;BME280;44020;50.890;15.796;2023-01-29T08:05:21;98604.25;;;-4.33;80.06
58223;BME280;44020;50.890;15.796;2023-01-29T08:07:55;98596.27;;;-4.30;79.81
58223;BME280;44020;50.890;15.796;2023-01-29T08:10:26;98591.78;;;-4.28;79.87
58223;BME280;44020;50.890;15.796;2023-01-29T08:12:55;98592.13;;;-4.28;79.75
58223;BME280;44020;50.890;15.796;2023-01-29T08:15:32;98593.69;;;-4.26;79.86
58223;BME280;44020;50.890;15.796;2023-01-29T08:18:05;98591.77;;;-4.26;79.74
58223;BME280;44020;50.890;15.796;2023-01-29T08:20:35;98585.55;;;-4.22;79.92
58223;BME280;44020;50.890;15.796;2023-01-29T08:23:08;98578.10;;;-4.19;79.82
58223;BME280;44020;50.890;15.796;2023-01-29T08:25:40;98565.27;;;-4.15;79.90
58223;BME280;44020;50.890;15.796;2023-01-29T08:28:10;98555.72;;;-4.11;79.83
58223;BME280;44020;50.890;15.796;2023-01-29T08:30:49;98548.79;;;-4.08;79.81
58223;BME280;44020;50.890;15.796;2023-01-29T08:33:31;98550.70;;;-4.07;79.87
58223;BME280;44020;50.890;15.796;2023-01-29T08:36:04;98546.54;;;-4.03;79.86
58223;BME280;44020;50.890;15.796;2023-01-29T08:38:44;98539.09;;;-3.98;79.93
58223;BME280;44020;50.890;15.796;2023-01-29T08:41:20;98534.05;;;-3.93;79.88
58223;BME280;44020;50.890;15.796;2023-01-29T08:44:01;98522.95;;;-3.88;79.90
58223;BME280;44020;50.890;15.796;2023-01-29T08:46:39;98517.74;;;-3.85;79.97
58223;BME280;44020;50.890;15.796;2023-01-29T08:49:08;98512.38;;;-3.82;80.04
58223;BME280;44020;50.890;15.796;2023-01-29T08:51:47;98512.19;;;-3.77;80.09
58223;BME280;44020;50.890;15.796;2023-01-29T08:54:23;98514.61;;;-3.72;80.17
58223;BME280;44020;50.890;15.796;2023-01-29T08:57:26;98521.21;;;-3.68;80.20
58223;BME280;44020;50.890;15.796;2023-01-29T09:06:02;98509.92;;;-3.59;80.26
58223;BME280;44020;50.890;15.796;2023-01-29T09:09:10;98515.83;;;-3.55;80.16
58223;BME280;44020;50.890;15.796;2023-01-29T09:11:42;98517.73;;;-3.56;80.12
58223;BME280;44020;50.890;15.796;2023-01-29T09:14:10;98517.56;;;-3.53;80.18
58223;BME280;44020;50.890;15.796;2023-01-29T09:16:47;98519.45;;;-3.48;80.17
58223;BME280;44020;50.890;15.796;2023-01-29T09:19:17;98520.15;;;-3.42;80.21
58223;BME280;44020;50.890;15.796;2023-01-29T09:21:50;98520.14;;;-3.37;80.26
58223;BME280;44020;50.890;15.796;2023-01-29T09:30:27;98518.20;;;-3.16;80.34
58223;BME280;44020;50.890;15.796;2023-01-29T09:32:55;98518.19;;;-3.12;80.32
58223;BME280;44020;50.890;15.796;2023-01-29T09:36:04;98505.12;;;-3.05;80.33
58223;BME280;44020;50.890;15.796;2023-01-29T09:45:22;98474.94;;;-2.79;80.53
58223;BME280;44020;50.890;15.796;2023-01-29T09:48:17;98470.58;;;-2.74;80.43
58223;BME280;44020;50.890;15.796;2023-01-29T09:50:46;98471.23;;;-2.67;80.34
58223;BME280;44020;50.890;15.796;2023-01-29T09:56:19;98461.61;;;-2.57;80.35
58223;BME280;44020;50.890;15.796;2023-01-29T10:02:34;98464.02;;;-2.47;80.39
58223;BME280;44020;50.890;15.796;2023-01-29T10:13:01;98457.51;;;-2.39;80.38
58223;BME280;44020;50.890;15.796;2023-01-29T10:16:00;98453.64;;;-2.34;80.46
58223;BME280;44020;50.890;15.796;2023-01-29T10:26:14;98428.61;;;-2.12;80.86
58223;BME280;44020;50.890;15.796;2023-01-29T10:28:52;98429.62;;;-2.09;80.74
58223;BME280;44020;50.890;15.796;2023-01-29T10:31:39;98428.35;;;-2.05;80.97
58223;BME280;44020;50.890;15.796;2023-01-29T10:34:35;98418.21;;;-1.99;80.98
58223;BME280;44020;50.890;15.796;2023-01-29T10:37:36;98410.48;;;-1.91;81.10
58223;BME280;44020;50.890;15.796;2023-01-29T10:40:31;98406.59;;;-1.84;81.21
58223;BME280;44020;50.890;15.796;2023-01-29T10:50:18;98407.00;;;-1.72;81.33
58223;BME280;44020;50.890;15.796;2023-01-29T10:53:02;98406.27;;;-1.69;81.25
58223;BME280;44020;50.890;15.796;2023-01-29T10:56:19;98402.21;;;-1.65;81.40
58223;BME280;44020;50.890;15.796;2023-01-29T11:02:20;98391.85;;;-1.56;81.40
58223;BME280;44020;50.890;15.796;2023-01-29T11:14:57;98366.31;;;-1.34;81.84
58223;BME280;44020;50.890;15.796;2023-01-29T11:17:14;98359.48;;;-1.31;82.04
58223;BME280;44020;50.890;15.796;2023-01-29T11:19:51;98355.08;;;-1.26;82.04
58223;BME280;44020;50.890;15.796;2023-01-29T11:22:33;98352.73;;;-1.21;82.09
58223;BME280;44020;50.890;15.796;2023-01-29T11:25:19;98347.44;;;-1.15;82.09
58223;BME280;44020;50.890;15.796;2023-01-29T11:28:05;98343.55;;;-1.11;82.09
58223;BME280;44020;50.890;15.796;2023-01-29T11:30:36;98339.81;;;-1.06;82.13
58223;BME280;44020;50.890;15.796;2023-01-29T11:33:44;98327.05;;;-1.04;81.98
58223;BME280;44020;50.890;15.796;2023-01-29T11:36:34;98315.37;;;-1.04;81.96
58223;BME280;44020;50.890;15.796;2023-01-29T11:39:46;98308.20;;;-1.01;81.94
58223;BME280;44020;50.890;15.796;2023-01-29T11:42:21;98303.77;;;-0.97;82.10
58223;BME280;44020;50.890;15.796;2023-01-29T11:58:42;98298.25;;;-0.89;82.28
58223;BME280;44020;50.890;15.796;2023-01-29T12:05:29;98301.63;;;-0.81;82.35
58223;BME280;44020;50.890;15.796;2023-01-29T12:14:32;98291.15;;;-0.70;82.45
58223;BME280;44020;50.890;15.796;2023-01-29T12:17:22;98282.20;;;-0.68;82.42
58223;BME280;44020;50.890;15.796;2023-01-29T12:29:54;98268.09;;;-0.57;82.55
58223;BME280;44020;50.890;15.796;2023-01-29T12:35:46;98267.09;;;-0.50;82.61
58223;BME280;44020;50.890;15.796;2023-01-29T12:38:33;98264.58;;;-0.46;82.73
58223;BME280;44020;50.890;15.796;2023-01-29T12:45:33;98245.91;;;-0.36;82.91
58223;BME280;44020;50.890;15.796;2023-01-29T12:52:10;98224.98;;;-0.18;82.81
58223;BME280;44020;50.890;15.796;2023-01-29T12:55:09;98213.09;;;-0.08;83.15
58223;BME280;44020;50.890;15.796;2023-01-29T12:57:56;98198.85;;;0.05;83.28
58223;BME280;44020;50.890;15.796;2023-01-29T13:07:11;98187.18;;;0.37;83.07
58223;BME280;44020;50.890;15.796;2023-01-29T13:10:50;98187.48;;;0.47;83.18
58223;BME280;44020;50.890;15.796;2023-01-29T13:13:53;98187.23;;;0.50;83.26
58223;BME280;44020;50.890;15.796;2023-01-29T13:20:29;98184.69;;;0.54;83.10
58223;BME280;44020;50.890;15.796;2023-01-29T13:23:38;98185.08;;;0.53;82.95
58223;BME280;44020;50.890;15.796;2023-01-29T13:26:22;98183.75;;;0.50;82.97
58223;BME280;44020;50.890;15.796;2023-01-29T13:29:26;98187.21;;;0.51;83.12
58223;BME280;44020;50.890;15.796;2023-01-29T13:43:54;98186.89;;;0.50;83.01
58223;BME280;44020;50.890;15.796;2023-01-29T13:50:16;98179.13;;;0.53;83.43
58223;BME280;44020;50.890;15.796;2023-01-29T13:54:15;98178.75;;;0.54;83.47
58223;BME280;44020;50.890;15.796;2023-01-29T14:03:44;98174.79;;;0.59;83.62
58223;BME280;44020;50.890;15.796;2023-01-29T14:06:49;98171.44;;;0.61;83.76
58223;BME280;44020;50.890;15.796;2023-01-29T14:10:00;98168.77;;;0.62;83.67
58223;BME280;44020;50.890;15.796;2023-01-29T14:16:34;98164.55;;;0.63;83.90
58223;BME280;44020;50.890;15.796;2023-01-29T14:23:28;98164.03;;;0.63;83.84
58223;BME280;44020;50.890;15.796;2023-01-29T14:29:29;98161.41;;;0.63;84.07
58223;BME280;44020;50.890;15.796;2023-01-29T14:32:25;98161.43;;;0.62;84.05
58223;BME280;44020;50.890;15.796;2023-01-29T14:35:33;98162.83;;;0.62;84.06
58223;BME280;44020;50.890;15.796;2023-01-29T14:38:49;98155.48;;;0.63;84.05
58223;BME280;44020;50.890;15.796;2023-01-29T14:57:10;98157.39;;;0.64;84.48
58223;BME280;44020;50.890;15.796;2023-01-29T14:59:37;98155.29;;;0.63;84.40
58223;BME280;44020;50.890;15.796;2023-01-29T15:02:54;98154.41;;;0.64;84.47
58223;BME280;44020;50.890;15.796;2023-01-29T15:05:35;98147.91;;;0.65;84.48
58223;BME280;44020;50.890;15.796;2023-01-29T15:11:00;98145.29;;;0.65;84.30
58223;BME280;44020;50.890;15.796;2023-01-29T15:14:12;98146.92;;;0.62;84.57
58223;BME280;44020;50.890;15.796;2023-01-29T15:17:06;98145.55;;;0.61;84.82
58223;BME280;44020;50.890;15.796;2023-01-29T15:19:47;98147.86;;;0.59;84.55
58223;BME280;44020;50.890;15.796;2023-01-29T15:22:44;98145.66;;;0.56;84.72
58223;BME280;44020;50.890;15.796;2023-01-29T15:25:56;98146.37;;;0.56;84.84
58223;BME280;44020;50.890;15.796;2023-01-29T15:28:33;98143.07;;;0.55;85.23
58223;BME280;44020;50.890;15.796;2023-01-29T15:31:33;98141.87;;;0.54;85.54
58223;BME280;44020;50.890;15.796;2023-01-29T15:38:28;98140.79;;;0.55;85.41
58223;BME280;44020;50.890;15.796;2023-01-29T15:40:44;98143.27;;;0.54;85.90
58223;BME280;44020;50.890;15.796;2023-01-29T15:43:34;98144.70;;;0.53;85.56
58223;BME280;44020;50.890;15.796;2023-01-29T15:46:44;98151.40;;;0.50;85.91
58223;BME280;44020;50.890;15.796;2023-01-29T15:49:43;98152.06;;;0.51;85.97
58223;BME280;44020;50.890;15.796;2023-01-29T16:09:09;98151.98;;;0.48;86.50
58223;BME280;44020;50.890;15.796;2023-01-29T16:11:52;98150.02;;;0.50;86.71
58223;BME280;44020;50.890;15.796;2023-01-29T16:18:23;98147.67;;;0.53;86.67
58223;BME280;44020;50.890;15.796;2023-01-29T16:21:28;98144.54;;;0.51;86.38
58223;BME280;44020;50.890;15.796;2023-01-29T16:24:21;98140.49;;;0.53;86.54
58223;BME280;44020;50.890;15.796;2023-01-29T16:27:49;98138.40;;;0.53;86.93
58223;BME280;44020;50.890;15.796;2023-01-29T16:40:00;98126.80;;;0.55;86.69
58223;BME280;44020;50.890;15.796;2023-01-29T16:50:31;98116.99;;;0.56;87.11
58223;BME280;44020;50.890;15.796;2023-01-29T16:53:40;98115.79;;;0.55;87.02
58223;BME280;44020;50.890;15.796;2023-01-29T16:57:34;98111.26;;;0.54;87.25
58223;BME280;44020;50.890;15.796;2023-01-29T17:00:04;98106.51;;;0.56;87.33
58223;BME280;44020;50.890;15.796;2023-01-29T17:03:25;98102.80;;;0.57;87.15
58223;BME280;44020;50.890;15.796;2023-01-29T17:05:59;98092.86;;;0.57;87.23
58223;BME280;44020;50.890;15.796;2023-01-29T17:09:23;98092.52;;;0.56;87.21
58223;BME280;44020;50.890;15.796;2023-01-29T17:19:15;98083.13;;;0.54;87.41
58223;BME280;44020;50.890;15.796;2023-01-29T17:22:18;98074.79;;;0.52;87.31
58223;BME280;44020;50.890;15.796;2023-01-29T17:25:18;98073.21;;;0.52;87.60
58223;BME280;44020;50.890;15.796;2023-01-29T17:32:16;98066.86;;;0.54;87.69
58223;BME280;44020;50.890;15.796;2023-01-29T17:35:16;98064.81;;;0.53;87.72
58223;BME280;44020;50.890;15.796;2023-01-29T17:38:37;98061.50;;;0.52;87.74
58223;BME280;44020;50.890;15.796;2023-01-29T17:44:22;98055.81;;;0.41;87.84
58223;BME280;44020;50.890;15.796;2023-01-29T17:50:08;98049.46;;;0.44;88.28
58223;BME280;44020;50.890;15.796;2023-01-29T17:53:05;98044.59;;;0.43;88.20
58223;BME280;44020;50.890;15.796;2023-01-29T17:56:42;98038.80;;;0.44;88.18
58223;BME280;44020;50.890;15.796;2023-01-29T18:05:05;98038.54;;;0.47;88.18
58223;BME280;44020;50.890;15.796;2023-01-29T18:08:00;98035.20;;;0.48;88.17
58223;BME280;44020;50.890;15.796;2023-01-29T18:10:35;98031.18;;;0.48;88.15
58223;BME280;44020;50.890;15.796;2023-01-29T18:13:19;98026.11;;;0.48;87.89
58223;BME280;44020;50.890;15.796;2023-01-29T18:16:28;98019.90;;;0.45;87.87
58223;BME280;44020;50.890;15.796;2023-01-29T18:25:57;98018.29;;;0.39;87.96
58223;BME280;44020;50.890;15.796;2023-01-29T18:28:50;98012.72;;;0.39;87.87
58223;BME280;44020;50.890;15.796;2023-01-29T18:38:32;98009.39;;;0.32;87.81
58223;BME280;44020;50.890;15.796;2023-01-29T18:41:30;98015.42;;;0.28;87.86
58223;BME280;44020;50.890;15.796;2023-01-29T18:43:58;98017.42;;;0.24;87.70
58223;BME280;44020;50.890;15.796;2023-01-29T18:46:29;98014.75;;;0.19;87.80
58223;BME280;44020;50.890;15.796;2023-01-29T18:52:35;98014.14;;;0.15;88.03
58223;BME280;44020;50.890;15.796;2023-01-29T18:55:25;98010.33;;;0.14;87.80
58223;BME280;44020;50.890;15.796;2023-01-29T18:57:53;98012.51;;;0.11;87.59
58223;BME280;44020;50.890;15.796;2023-01-29T19:00:34;98008.39;;;0.08;87.81
58223;BME280;44020;50.890;15.796;2023-01-29T19:03:01;98005.52;;;0.03;87.64
58223;BME280;44020;50.890;15.796;2023-01-29T19:05:32;98004.00;;;0.01;87.56
58223;BME280;44020;50.890;15.796;2023-01-29T19:11:30;97989.88;;;-0.08;87.49
58223;BME280;44020;50.890;15.796;2023-01-29T19:14:11;97985.88;;;-0.08;87.73
58223;BME280;44020;50.890;15.796;2023-01-29T19:17:05;97989.09;;;-0.12;87.63
58223;BME280;44020;50.890;15.796;2023-01-29T19:19:45;97984.11;;;-0.15;87.66
58223;BME280;44020;50.890;15.796;2023-01-29T19:22:20;97982.77;;;-0.17;87.32
58223;BME280;44020;50.890;15.796;2023-01-29T19:25:55;97983.28;;;-0.25;87.37
58223;BME280;44020;50.890;15.796;2023-01-29T19:28:16;97989.45;;;-0.27;87.58
58223;BME280;44020;50.890;15.796;2023-01-29T19:30:55;97988.79;;;-0.29;87.77
58223;BME280;44020;50.890;15.796;2023-01-29T19:33:31;97987.59;;;-0.30;87.49
58223;BME280;44020;50.890;15.796;2023-01-29T19:36:08;97982.08;;;-0.33;87.10
58223;BME280;44020;50.890;15.796;2023-01-29T19:39:09;97976.64;;;-0.40;86.93
58223;BME280;44020;50.890;15.796;2023-01-29T19:41:44;97975.75;;;-0.47;86.56
58223;BME280;44020;50.890;15.796;2023-01-29T19:44:14;97969.39;;;-0.51;86.52
58223;BME280;44020;50.890;15.796;2023-01-29T19:46:54;97970.36;;;-0.57;85.84
58223;BME280;44020;50.890;15.796;2023-01-29T19:49:24;97964.63;;;-0.65;85.56
58223;BME280;44020;50.890;15.796;2023-01-29T19:51:52;97958.97;;;-0.70;85.68
58223;BME280;44020;50.890;15.796;2023-01-29T19:54:55;97953.79;;;-0.73;85.16
58223;BME280;44020;50.890;15.796;2023-01-29T20:01:00;97946.86;;;-0.83;85.17
58223;BME280;44020;50.890;15.796;2023-01-29T20:03:38;97942.55;;;-0.85;85.08
58223;BME280;44020;50.890;15.796;2023-01-29T20:06:08;97939.34;;;-0.91;84.56
58223;BME280;44020;50.890;15.796;2023-01-29T20:11:20;97932.73;;;-1.00;83.84
58223;BME280;44020;50.890;15.796;2023-01-29T20:13:52;97925.15;;;-1.05;83.33
58223;BME280;44020;50.890;15.796;2023-01-29T20:16:29;97913.83;;;-1.13;83.23
58223;BME280;44020;50.890;15.796;2023-01-29T20:19:15;97912.66;;;-1.16;83.49
58223;BME280;44020;50.890;15.796;2023-01-29T20:21:49;97912.84;;;-1.17;83.50
58223;BME280;44020;50.890;15.796;2023-01-29T20:24:19;97905.72;;;-1.18;83.23
58223;BME280;44020;50.890;15.796;2023-01-29T20:27:11;97902.61;;;-1.20;83.24
58223;BME280;44020;50.890;15.796;2023-01-29T20:29:38;97896.01;;;-1.20;82.89
58223;BME280;44020;50.890;15.796;2023-01-29T20:32:23;97893.64;;;-1.24;82.48
58223;BME280;44020;50.890;15.796;2023-01-29T20:34:54;97890.95;;;-1.29;82.41
58223;BME280;44020;50.890;15.796;2023-01-29T20:38:00;97887.17;;;-1.32;82.22
58223;BME280;44020;50.890;15.796;2023-01-29T20:40:31;97880.27;;;-1.35;82.34
58223;BME280;44020;50.890;15.796;2023-01-29T20:43:14;97870.04;;;-1.38;82.22
58223;BME280;44020;50.890;15.796;2023-01-29T20:45:48;97873.22;;;-1.40;82.31
58223;BME280;44020;50.890;15.796;2023-01-29T20:48:27;97870.81;;;-1.42;82.31
58223;BME280;44020;50.890;15.796;2023-01-29T20:51:15;97873.77;;;-1.41;82.34